sensor_id;sensor_type;location;lat;lon;timestamp;P1;durP1;ratioP1;P2;durP2;ratioP2
16832;SDS011;8533;48.426;10.868;2022-07-29T00:00:52;4.97;;;3.20;;
16832;SDS011;8533;48.426;10.868;2022-07-29T00:03:20;7.77;;;3.90;;
16832;SDS011;8533;48.426;10.868;2022-07-29T00:05:47;4.40;;;3.60;;
16832;SDS011;8533;48.426;10.868;2022-07-29T00:08:14;3.67;;;3.20;;
16832;SDS011;8533;48.426;10.868;2022-07-29T00:10:42;4.70;;;2.97;;
16832;SDS011;8533;48.426;10.868;2022-07-29T00:13:09;3.63;;;2.73;;
16832;SDS011;8533;48.426;10.868;2022-07-29T00:15:37;5.40;;;3.70;;
16832;SDS011;8533;48.426;10.868;2022-07-29T00:18:04;6.07;;;3.10;;
16832;SDS011;8533;48.426;10.868;2022-07-29T00:20:32;4.37;;;2.80;;
16832;SDS011;8533;48.426;10.868;2022-07-29T00:22:59;4.07;;;3.63;;
16832;SDS011;8533;48.426;10.868;2022-07-29T00:25:27;3.43;;;3.10;;
16832;SDS011;8533;48.426;10.868;2022-07-29T00:27:54;6.20;;;3.30;;
16832;SDS011;8533;48.426;10.868;2022-07-29T00:30:22;4.70;;;3.40;;
16832;SDS011;8533;48.426;10.868;2022-07-29T00:32:49;5.10;;;3.67;;
16832;SDS011;8533;48.426;10.868;2022-07-29T00:35:17;4.90;;;4.10;;
16832;SDS011;8533;48.426;10.868;2022-07-29T00:38:02;6.20;;;3.75;;
16832;SDS011;8533;48.426;10.868;2022-07-29T00:40:29;3.63;;;3.33;;
16832;SDS011;8533;48.426;10.868;2022-07-29T00:42:57;5.07;;;3.60;;
16832;SDS011;8533;48.426;10.868;2022-07-29T00:45:24;5.33;;;3.80;;
16832;SDS011;8533;48.426;10.868;2022-07-29T00:47:51;4.97;;;3.83;;
16832;SDS011;8533;48.426;10.868;2022-07-29T00:50:19;5.47;;;3.60;;
16832;SDS011;8533;48.426;10.868;2022-07-29T00:52:46;9.20;;;3.97;;
16832;SDS011;8533;48.426;10.868;2022-07-29T00:55:14;3.90;;;3.50;;
16832;SDS011;8533;48.426;10.868;2022-07-29T00:57:43;6.23;;;3.87;;
16832;SDS011;8533;48.426;10.868;2022-07-29T01:00:15;3.93;;;3.53;;
16832;SDS011;8533;48.426;10.868;2022-07-29T01:02:45;6.80;;;3.23;;
16832;SDS011;8533;48.426;10.868;2022-07-29T01:05:13;3.90;;;3.50;;
16832;SDS011;8533;48.426;10.868;2022-07-29T01:07:43;4.40;;;3.47;;
16832;SDS011;8533;48.426;10.868;2022-07-29T01:10:13;4.83;;;3.77;;
16832;SDS011;8533;48.426;10.868;2022-07-29T01:12:42;8.00;;;3.93;;
16832;SDS011;8533;48.426;10.868;2022-07-29T01:15:12;4.47;;;3.53;;
16832;SDS011;8533;48.426;10.868;2022-07-29T01:17:44;4.70;;;3.50;;
16832;SDS011;8533;48.426;10.868;2022-07-29T01:23:10;5.60;;;3.40;;
16832;SDS011;8533;48.426;10.868;2022-07-29T01:28:47;4.27;;;3.07;;
16832;SDS011;8533;48.426;10.868;2022-07-29T01:34:35;5.57;;;3.60;;
16832;SDS011;8533;48.426;10.868;2022-07-29T01:37:55;3.17;;;2.87;;
16832;SDS011;8533;48.426;10.868;2022-07-29T01:42:30;3.93;;;3.43;;
16832;SDS011;8533;48.426;10.868;2022-07-29T01:47:32;4.70;;;3.37;;
16832;SDS011;8533;48.426;10.868;2022-07-29T01:52:45;3.80;;;3.33;;
16832;SDS011;8533;48.426;10.868;2022-07-29T01:55:16;4.20;;;3.43;;
16832;SDS011;8533;48.426;10.868;2022-07-29T01:57:42;5.63;;;3.57;;
16832;SDS011;8533;48.426;10.868;2022-07-29T02:00:12;4.07;;;3.23;;
16832;SDS011;8533;48.426;10.868;2022-07-29T02:02:41;4.93;;;3.33;;
16832;SDS011;8533;48.426;10.868;2022-07-29T02:05:11;4.43;;;3.77;;
16832;SDS011;8533;48.426;10.868;2022-07-29T02:07:42;6.83;;;3.97;;
16832;SDS011;8533;48.426;10.868;2022-07-29T02:10:10;4.20;;;3.67;;
16832;SDS011;8533;48.426;10.868;2022-07-29T02:12:40;4.90;;;3.90;;
16832;SDS011;8533;48.426;10.868;2022-07-29T02:15:10;5.57;;;4.10;;
16832;SDS011;8533;48.426;10.868;2022-07-29T02:17:43;5.20;;;3.93;;
16832;SDS011;8533;48.426;10.868;2022-07-29T02:20:12;4.73;;;3.93;;
16832;SDS011;8533;48.426;10.868;2022-07-29T02:22:42;5.07;;;4.03;;
16832;SDS011;8533;48.426;10.868;2022-07-29T02:25:11;5.83;;;4.43;;
16832;SDS011;8533;48.426;10.868;2022-07-29T02:27:39;6.27;;;4.43;;
16832;SDS011;8533;48.426;10.868;2022-07-29T02:30:09;5.57;;;4.43;;
16832;SDS011;8533;48.426;10.868;2022-07-29T02:32:38;5.93;;;4.50;;
16832;SDS011;8533;48.426;10.868;2022-07-29T02:35:08;6.33;;;4.33;;
16832;SDS011;8533;48.426;10.868;2022-07-29T02:37:36;5.70;;;4.30;;
16832;SDS011;8533;48.426;10.868;2022-07-29T02:40:06;5.10;;;4.20;;
16832;SDS011;8533;48.426;10.868;2022-07-29T02:42:37;6.53;;;4.70;;
16832;SDS011;8533;48.426;10.868;2022-07-29T02:45:07;6.50;;;4.50;;
16832;SDS011;8533;48.426;10.868;2022-07-29T02:50:11;5.10;;;4.40;;
16832;SDS011;8533;48.426;10.868;2022-07-29T02:52:41;5.57;;;4.43;;
16832;SDS011;8533;48.426;10.868;2022-07-29T02:55:22;5.43;;;4.33;;
16832;SDS011;8533;48.426;10.868;2022-07-29T02:58:02;5.35;;;4.15;;
16832;SDS011;8533;48.426;10.868;2022-07-29T03:03:03;5.87;;;4.77;;
16832;SDS011;8533;48.426;10.868;2022-07-29T03:05:32;5.57;;;4.53;;
16832;SDS011;8533;48.426;10.868;2022-07-29T03:08:01;6.40;;;5.03;;
16832;SDS011;8533;48.426;10.868;2022-07-29T03:10:31;7.87;;;5.00;;
16832;SDS011;8533;48.426;10.868;2022-07-29T03:12:59;6.93;;;4.67;;
16832;SDS011;8533;48.426;10.868;2022-07-29T03:15:27;6.70;;;4.60;;
16832;SDS011;8533;48.426;10.868;2022-07-29T03:17:55;6.27;;;4.83;;
16832;SDS011;8533;48.426;10.868;2022-07-29T03:20:24;6.60;;;4.80;;
16832;SDS011;8533;48.426;10.868;2022-07-29T03:22:52;6.87;;;4.53;;
16832;SDS011;8533;48.426;10.868;2022-07-29T03:25:19;6.27;;;4.40;;
16832;SDS011;8533;48.426;10.868;2022-07-29T03:27:47;5.60;;;4.60;;
16832;SDS011;8533;48.426;10.868;2022-07-29T03:30:15;6.57;;;4.53;;
16832;SDS011;8533;48.426;10.868;2022-07-29T03:32:42;6.87;;;5.00;;
16832;SDS011;8533;48.426;10.868;2022-07-29T03:35:10;5.97;;;4.60;;
16832;SDS011;8533;48.426;10.868;2022-07-29T03:37:37;5.73;;;4.40;;
16832;SDS011;8533;48.426;10.868;2022-07-29T03:40:05;6.03;;;4.43;;
16832;SDS011;8533;48.426;10.868;2022-07-29T03:42:37;6.10;;;5.20;;
16832;SDS011;8533;48.426;10.868;2022-07-29T03:45:07;6.77;;;4.40;;
16832;SDS011;8533;48.426;10.868;2022-07-29T03:47:38;5.87;;;4.20;;
16832;SDS011;8533;48.426;10.868;2022-07-29T03:50:08;5.37;;;4.27;;
16832;SDS011;8533;48.426;10.868;2022-07-29T03:52:38;5.17;;;3.87;;
16832;SDS011;8533;48.426;10.868;2022-07-29T03:55:06;5.90;;;4.70;;
16832;SDS011;8533;48.426;10.868;2022-07-29T03:57:35;10.07;;;5.10;;
16832;SDS011;8533;48.426;10.868;2022-07-29T04:00:04;6.87;;;4.60;;
16832;SDS011;8533;48.426;10.868;2022-07-29T04:02:32;7.10;;;4.57;;
16832;SDS011;8533;48.426;10.868;2022-07-29T04:05:00;6.80;;;4.80;;
16832;SDS011;8533;48.426;10.868;2022-07-29T04:07:28;5.93;;;4.47;;
16832;SDS011;8533;48.426;10.868;2022-07-29T04:09:55;5.77;;;4.70;;
16832;SDS011;8533;48.426;10.868;2022-07-29T04:12:22;7.37;;;5.40;;
16832;SDS011;8533;48.426;10.868;2022-07-29T04:14:50;8.03;;;5.73;;
16832;SDS011;8533;48.426;10.868;2022-07-29T04:17:17;8.03;;;5.20;;
16832;SDS011;8533;48.426;10.868;2022-07-29T04:19:45;6.83;;;5.20;;
16832;SDS011;8533;48.426;10.868;2022-07-29T04:22:12;8.13;;;5.60;;
16832;SDS011;8533;48.426;10.868;2022-07-29T04:24:40;7.73;;;5.13;;
16832;SDS011;8533;48.426;10.868;2022-07-29T04:27:07;6.20;;;4.57;;
16832;SDS011;8533;48.426;10.868;2022-07-29T04:29:34;8.10;;;4.90;;
16832;SDS011;8533;48.426;10.868;2022-07-29T04:32:02;6.30;;;4.87;;
16832;SDS011;8533;48.426;10.868;2022-07-29T04:34:29;6.80;;;5.40;;
16832;SDS011;8533;48.426;10.868;2022-07-29T04:36:57;5.80;;;4.53;;
16832;SDS011;8533;48.426;10.868;2022-07-29T04:39:24;9.73;;;5.03;;
16832;SDS011;8533;48.426;10.868;2022-07-29T04:41:52;6.97;;;4.87;;
16832;SDS011;8533;48.426;10.868;2022-07-29T04:44:19;6.07;;;4.40;;
16832;SDS011;8533;48.426;10.868;2022-07-29T04:46:47;7.87;;;4.63;;
16832;SDS011;8533;48.426;10.868;2022-07-29T04:49:14;5.57;;;4.10;;
16832;SDS011;8533;48.426;10.868;2022-07-29T04:51:42;6.57;;;4.80;;
16832;SDS011;8533;48.426;10.868;2022-07-29T04:54:09;6.03;;;4.23;;
16832;SDS011;8533;48.426;10.868;2022-07-29T04:56:37;5.73;;;4.17;;
16832;SDS011;8533;48.426;10.868;2022-07-29T04:59:04;6.27;;;4.27;;
16832;SDS011;8533;48.426;10.868;2022-07-29T05:01:32;7.93;;;5.37;;
16832;SDS011;8533;48.426;10.868;2022-07-29T05:03:59;8.10;;;4.03;;
16832;SDS011;8533;48.426;10.868;2022-07-29T05:06:27;8.23;;;4.27;;
16832;SDS011;8533;48.426;10.868;2022-07-29T05:08:54;4.43;;;3.63;;
16832;SDS011;8533;48.426;10.868;2022-07-29T05:11:22;7.03;;;3.93;;
16832;SDS011;8533;48.426;10.868;2022-07-29T05:13:49;4.30;;;3.57;;
16832;SDS011;8533;48.426;10.868;2022-07-29T05:16:16;5.87;;;3.97;;
16832;SDS011;8533;48.426;10.868;2022-07-29T05:18:44;7.97;;;4.07;;
16832;SDS011;8533;48.426;10.868;2022-07-29T05:21:11;5.77;;;3.90;;
16832;SDS011;8533;48.426;10.868;2022-07-29T05:23:39;5.40;;;3.80;;
16832;SDS011;8533;48.426;10.868;2022-07-29T05:26:06;4.53;;;3.83;;
16832;SDS011;8533;48.426;10.868;2022-07-29T05:28:34;3.83;;;3.07;;
16832;SDS011;8533;48.426;10.868;2022-07-29T05:31:01;3.33;;;3.03;;
16832;SDS011;8533;48.426;10.868;2022-07-29T05:33:29;7.27;;;4.30;;
16832;SDS011;8533;48.426;10.868;2022-07-29T05:35:58;4.67;;;3.60;;
16832;SDS011;8533;48.426;10.868;2022-07-29T05:38:25;3.97;;;3.17;;
16832;SDS011;8533;48.426;10.868;2022-07-29T05:40:53;3.00;;;2.70;;
16832;SDS011;8533;48.426;10.868;2022-07-29T05:43:23;4.17;;;3.20;;
16832;SDS011;8533;48.426;10.868;2022-07-29T05:45:51;5.83;;;2.57;;
16832;SDS011;8533;48.426;10.868;2022-07-29T05:48:18;5.70;;;3.50;;
16832;SDS011;8533;48.426;10.868;2022-07-29T05:50:46;4.60;;;3.40;;
16832;SDS011;8533;48.426;10.868;2022-07-29T05:53:14;4.50;;;3.33;;
16832;SDS011;8533;48.426;10.868;2022-07-29T05:55:41;5.07;;;3.57;;
16832;SDS011;8533;48.426;10.868;2022-07-29T05:58:09;4.33;;;3.30;;
16832;SDS011;8533;48.426;10.868;2022-07-29T06:00:36;6.07;;;3.37;;
16832;SDS011;8533;48.426;10.868;2022-07-29T06:03:03;4.97;;;3.17;;
16832;SDS011;8533;48.426;10.868;2022-07-29T06:05:31;4.63;;;3.40;;
16832;SDS011;8533;48.426;10.868;2022-07-29T06:07:58;5.47;;;3.53;;
16832;SDS011;8533;48.426;10.868;2022-07-29T06:10:26;4.77;;;3.50;;
16832;SDS011;8533;48.426;10.868;2022-07-29T06:12:53;4.73;;;4.07;;
16832;SDS011;8533;48.426;10.868;2022-07-29T06:15:21;4.80;;;4.03;;
16832;SDS011;8533;48.426;10.868;2022-07-29T06:17:48;7.07;;;4.60;;
16832;SDS011;8533;48.426;10.868;2022-07-29T06:20:15;5.93;;;4.60;;
16832;SDS011;8533;48.426;10.868;2022-07-29T06:22:48;4.47;;;3.90;;
16832;SDS011;8533;48.426;10.868;2022-07-29T06:25:14;4.60;;;4.10;;
16832;SDS011;8533;48.426;10.868;2022-07-29T06:27:44;5.50;;;4.53;;
16832;SDS011;8533;48.426;10.868;2022-07-29T06:30:12;6.27;;;4.53;;
16832;SDS011;8533;48.426;10.868;2022-07-29T06:32:39;4.13;;;3.73;;
16832;SDS011;8533;48.426;10.868;2022-07-29T06:35:07;6.40;;;4.80;;
16832;SDS011;8533;48.426;10.868;2022-07-29T06:37:35;4.40;;;3.73;;
16832;SDS011;8533;48.426;10.868;2022-07-29T06:40:03;4.37;;;3.80;;
16832;SDS011;8533;48.426;10.868;2022-07-29T06:42:48;4.40;;;3.50;;
16832;SDS011;8533;48.426;10.868;2022-07-29T06:45:16;4.70;;;3.43;;
16832;SDS011;8533;48.426;10.868;2022-07-29T06:47:43;3.70;;;2.90;;
16832;SDS011;8533;48.426;10.868;2022-07-29T06:50:11;4.03;;;3.33;;
16832;SDS011;8533;48.426;10.868;2022-07-29T06:52:39;4.10;;;3.30;;
16832;SDS011;8533;48.426;10.868;2022-07-29T06:55:07;3.63;;;3.23;;
16832;SDS011;8533;48.426;10.868;2022-07-29T06:57:34;3.77;;;3.37;;
16832;SDS011;8533;48.426;10.868;2022-07-29T07:00:03;3.73;;;3.20;;
16832;SDS011;8533;48.426;10.868;2022-07-29T07:02:30;4.63;;;3.50;;
16832;SDS011;8533;48.426;10.868;2022-07-29T07:04:58;5.73;;;3.30;;
16832;SDS011;8533;48.426;10.868;2022-07-29T07:07:25;4.63;;;3.50;;
16832;SDS011;8533;48.426;10.868;2022-07-29T07:09:53;4.70;;;3.10;;
16832;SDS011;8533;48.426;10.868;2022-07-29T07:12:20;4.43;;;3.27;;
16832;SDS011;8533;48.426;10.868;2022-07-29T07:14:48;6.83;;;3.90;;
16832;SDS011;8533;48.426;10.868;2022-07-29T07:17:15;4.37;;;3.47;;
16832;SDS011;8533;48.426;10.868;2022-07-29T07:19:42;4.23;;;3.43;;
16832;SDS011;8533;48.426;10.868;2022-07-29T07:22:10;3.37;;;2.80;;
16832;SDS011;8533;48.426;10.868;2022-07-29T07:24:38;4.70;;;3.30;;
16832;SDS011;8533;48.426;10.868;2022-07-29T07:27:05;5.37;;;2.60;;
16832;SDS011;8533;48.426;10.868;2022-07-29T07:29:32;2.93;;;2.60;;
16832;SDS011;8533;48.426;10.868;2022-07-29T07:32:00;3.33;;;2.37;;
16832;SDS011;8533;48.426;10.868;2022-07-29T07:34:28;4.73;;;2.70;;
16832;SDS011;8533;48.426;10.868;2022-07-29T07:36:55;3.33;;;2.10;;
16832;SDS011;8533;48.426;10.868;2022-07-29T07:39:23;2.60;;;2.40;;
16832;SDS011;8533;48.426;10.868;2022-07-29T07:41:51;2.40;;;2.20;;
16832;SDS011;8533;48.426;10.868;2022-07-29T07:44:19;3.37;;;2.50;;
16832;SDS011;8533;48.426;10.868;2022-07-29T07:46:46;2.87;;;2.60;;
16832;SDS011;8533;48.426;10.868;2022-07-29T07:49:14;3.10;;;2.73;;
16832;SDS011;8533;48.426;10.868;2022-07-29T07:51:41;2.57;;;2.37;;
16832;SDS011;8533;48.426;10.868;2022-07-29T07:54:09;3.10;;;2.40;;
16832;SDS011;8533;48.426;10.868;2022-07-29T07:56:36;4.67;;;2.40;;
16832;SDS011;8533;48.426;10.868;2022-07-29T07:59:03;2.53;;;2.33;;
16832;SDS011;8533;48.426;10.868;2022-07-29T08:01:31;3.43;;;2.63;;
16832;SDS011;8533;48.426;10.868;2022-07-29T08:03:58;3.03;;;2.47;;
16832;SDS011;8533;48.426;10.868;2022-07-29T08:06:26;2.63;;;2.43;;
16832;SDS011;8533;48.426;10.868;2022-07-29T08:08:53;2.93;;;2.50;;
16832;SDS011;8533;48.426;10.868;2022-07-29T08:11:21;4.27;;;2.90;;
16832;SDS011;8533;48.426;10.868;2022-07-29T08:13:48;3.87;;;3.20;;
16832;SDS011;8533;48.426;10.868;2022-07-29T08:16:15;2.90;;;2.50;;
16832;SDS011;8533;48.426;10.868;2022-07-29T08:18:44;3.37;;;2.97;;
16832;SDS011;8533;48.426;10.868;2022-07-29T08:21:12;3.20;;;2.73;;
16832;SDS011;8533;48.426;10.868;2022-07-29T08:23:41;3.03;;;2.73;;
16832;SDS011;8533;48.426;10.868;2022-07-29T08:26:14;2.40;;;2.20;;
16832;SDS011;8533;48.426;10.868;2022-07-29T08:28:43;2.40;;;2.20;;
16832;SDS011;8533;48.426;10.868;2022-07-29T08:31:11;3.70;;;2.93;;
16832;SDS011;8533;48.426;10.868;2022-07-29T08:33:39;3.97;;;2.80;;
16832;SDS011;8533;48.426;10.868;2022-07-29T08:36:07;3.40;;;3.10;;
16832;SDS011;8533;48.426;10.868;2022-07-29T08:38:35;3.83;;;2.80;;
16832;SDS011;8533;48.426;10.868;2022-07-29T08:41:02;3.20;;;2.50;;
16832;SDS011;8533;48.426;10.868;2022-07-29T08:43:30;3.87;;;2.80;;
16832;SDS011;8533;48.426;10.868;2022-07-29T08:45:59;6.10;;;2.70;;
16832;SDS011;8533;48.426;10.868;2022-07-29T08:48:27;3.23;;;2.80;;
16832;SDS011;8533;48.426;10.868;2022-07-29T08:50:55;3.13;;;2.70;;
16832;SDS011;8533;48.426;10.868;2022-07-29T08:53:24;3.77;;;2.67;;
16832;SDS011;8533;48.426;10.868;2022-07-29T08:55:53;5.63;;;2.80;;
16832;SDS011;8533;48.426;10.868;2022-07-29T08:58:20;4.23;;;2.90;;
16832;SDS011;8533;48.426;10.868;2022-07-29T09:00:56;3.60;;;2.77;;
16832;SDS011;8533;48.426;10.868;2022-07-29T09:03:25;3.93;;;3.10;;
16832;SDS011;8533;48.426;10.868;2022-07-29T09:05:54;3.60;;;3.03;;
16832;SDS011;8533;48.426;10.868;2022-07-29T09:08:22;6.87;;;2.63;;
16832;SDS011;8533;48.426;10.868;2022-07-29T09:10:50;3.43;;;2.70;;
16832;SDS011;8533;48.426;10.868;2022-07-29T09:13:18;2.83;;;2.60;;
16832;SDS011;8533;48.426;10.868;2022-07-29T09:15:46;3.50;;;2.60;;
16832;SDS011;8533;48.426;10.868;2022-07-29T09:18:32;3.20;;;2.60;;
16832;SDS011;8533;48.426;10.868;2022-07-29T09:21:00;3.20;;;2.50;;
16832;SDS011;8533;48.426;10.868;2022-07-29T09:24:01;2.30;;;2.10;;
16832;SDS011;8533;48.426;10.868;2022-07-29T09:26:37;4.17;;;2.23;;
16832;SDS011;8533;48.426;10.868;2022-07-29T09:31:38;4.40;;;2.80;;
16832;SDS011;8533;48.426;10.868;2022-07-29T09:34:08;4.70;;;2.50;;
16832;SDS011;8533;48.426;10.868;2022-07-29T09:36:40;3.23;;;2.27;;
16832;SDS011;8533;48.426;10.868;2022-07-29T09:41:46;2.53;;;2.33;;
16832;SDS011;8533;48.426;10.868;2022-07-29T09:49:27;2.90;;;2.55;;
16832;SDS011;8533;48.426;10.868;2022-07-29T09:52:05;3.87;;;2.30;;
16832;SDS011;8533;48.426;10.868;2022-07-29T09:57:05;3.20;;;2.90;;
16832;SDS011;8533;48.426;10.868;2022-07-29T09:59:36;4.10;;;2.50;;
16832;SDS011;8533;48.426;10.868;2022-07-29T10:02:12;3.47;;;2.70;;
16832;SDS011;8533;48.426;10.868;2022-07-29T10:07:08;2.53;;;2.33;;
16832;SDS011;8533;48.426;10.868;2022-07-29T10:09:35;4.93;;;2.70;;
16832;SDS011;8533;48.426;10.868;2022-07-29T10:14:34;3.23;;;2.63;;
16832;SDS011;8533;48.426;10.868;2022-07-29T10:17:03;3.27;;;2.80;;
16832;SDS011;8533;48.426;10.868;2022-07-29T10:19:31;2.63;;;2.43;;
16832;SDS011;8533;48.426;10.868;2022-07-29T10:22:01;2.90;;;2.60;;
16832;SDS011;8533;48.426;10.868;2022-07-29T10:24:31;3.20;;;2.80;;
16832;SDS011;8533;48.426;10.868;2022-07-29T10:27:00;2.83;;;2.63;;
16832;SDS011;8533;48.426;10.868;2022-07-29T10:29:28;5.37;;;3.00;;
16832;SDS011;8533;48.426;10.868;2022-07-29T10:32:13;3.47;;;2.70;;
16832;SDS011;8533;48.426;10.868;2022-07-29T10:34:47;4.20;;;3.10;;
16832;SDS011;8533;48.426;10.868;2022-07-29T10:39:52;3.07;;;2.80;;
16832;SDS011;8533;48.426;10.868;2022-07-29T10:42:39;4.93;;;3.03;;
16832;SDS011;8533;48.426;10.868;2022-07-29T10:45:07;4.53;;;2.93;;
16832;SDS011;8533;48.426;10.868;2022-07-29T10:47:35;3.80;;;2.87;;
16832;SDS011;8533;48.426;10.868;2022-07-29T10:50:03;6.40;;;3.17;;
16832;SDS011;8533;48.426;10.868;2022-07-29T10:55:32;4.60;;;3.17;;
16832;SDS011;8533;48.426;10.868;2022-07-29T11:00:47;2.80;;;2.60;;
16832;SDS011;8533;48.426;10.868;2022-07-29T11:06:10;5.70;;;3.23;;
16832;SDS011;8533;48.426;10.868;2022-07-29T11:08:37;4.33;;;3.20;;
16832;SDS011;8533;48.426;10.868;2022-07-29T11:11:38;5.40;;;3.10;;
16832;SDS011;8533;48.426;10.868;2022-07-29T11:13:50;3.65;;;3.00;;
16832;SDS011;8533;48.426;10.868;2022-07-29T11:16:20;3.30;;;2.67;;
16832;SDS011;8533;48.426;10.868;2022-07-29T11:21:39;3.33;;;2.97;;
16832;SDS011;8533;48.426;10.868;2022-07-29T11:24:15;4.10;;;3.13;;
16832;SDS011;8533;48.426;10.868;2022-07-29T11:29:20;3.53;;;2.33;;
16832;SDS011;8533;48.426;10.868;2022-07-29T11:34:24;3.00;;;2.80;;
16832;SDS011;8533;48.426;10.868;2022-07-29T11:39:40;3.50;;;3.20;;
16832;SDS011;8533;48.426;10.868;2022-07-29T11:45:01;2.70;;;2.50;;
16832;SDS011;8533;48.426;10.868;2022-07-29T11:50:10;2.63;;;2.43;;
16832;SDS011;8533;48.426;10.868;2022-07-29T11:52:35;3.23;;;2.90;;
16832;SDS011;8533;48.426;10.868;2022-07-29T11:58:13;3.20;;;2.50;;
16832;SDS011;8533;48.426;10.868;2022-07-29T12:02:55;3.67;;;2.63;;
16832;SDS011;8533;48.426;10.868;2022-07-29T12:05:31;3.40;;;2.60;;
16832;SDS011;8533;48.426;10.868;2022-07-29T12:10:33;3.63;;;2.50;;
16832;SDS011;8533;48.426;10.868;2022-07-29T12:13:01;2.97;;;2.73;;
16832;SDS011;8533;48.426;10.868;2022-07-29T12:15:29;2.40;;;2.20;;
16832;SDS011;8533;48.426;10.868;2022-07-29T12:17:56;5.07;;;2.50;;
16832;SDS011;8533;48.426;10.868;2022-07-29T12:20:25;2.50;;;2.30;;
16832;SDS011;8533;48.426;10.868;2022-07-29T12:22:54;2.73;;;2.53;;
16832;SDS011;8533;48.426;10.868;2022-07-29T12:25:23;2.63;;;2.43;;
16832;SDS011;8533;48.426;10.868;2022-07-29T12:28:07;3.27;;;2.97;;
16832;SDS011;8533;48.426;10.868;2022-07-29T12:30:39;3.85;;;2.80;;
16832;SDS011;8533;48.426;10.868;2022-07-29T12:33:23;2.70;;;2.37;;
16832;SDS011;8533;48.426;10.868;2022-07-29T12:35:56;2.90;;;2.70;;
16832;SDS011;8533;48.426;10.868;2022-07-29T12:38:27;3.17;;;2.40;;
16832;SDS011;8533;48.426;10.868;2022-07-29T12:40:55;3.27;;;2.90;;
16832;SDS011;8533;48.426;10.868;2022-07-29T12:43:23;3.10;;;2.80;;
16832;SDS011;8533;48.426;10.868;2022-07-29T12:45:52;3.30;;;2.50;;
16832;SDS011;8533;48.426;10.868;2022-07-29T12:48:39;3.43;;;2.80;;
16832;SDS011;8533;48.426;10.868;2022-07-29T12:51:04;3.00;;;2.70;;
16832;SDS011;8533;48.426;10.868;2022-07-29T12:53:33;2.73;;;2.53;;
16832;SDS011;8533;48.426;10.868;2022-07-29T12:56:01;2.80;;;2.37;;
16832;SDS011;8533;48.426;10.868;2022-07-29T12:58:34;3.17;;;2.83;;
16832;SDS011;8533;48.426;10.868;2022-07-29T13:06:41;2.67;;;2.40;;
16832;SDS011;8533;48.426;10.868;2022-07-29T13:09:15;2.90;;;2.60;;
16832;SDS011;8533;48.426;10.868;2022-07-29T13:14:31;2.70;;;2.50;;
16832;SDS011;8533;48.426;10.868;2022-07-29T13:19:34;2.80;;;2.33;;
16832;SDS011;8533;48.426;10.868;2022-07-29T13:22:09;2.60;;;2.40;;
16832;SDS011;8533;48.426;10.868;2022-07-29T13:24:50;2.63;;;2.43;;
16832;SDS011;8533;48.426;10.868;2022-07-29T13:27:26;2.50;;;2.30;;
16832;SDS011;8533;48.426;10.868;2022-07-29T13:29:54;2.83;;;2.53;;
16832;SDS011;8533;48.426;10.868;2022-07-29T13:32:23;3.40;;;2.30;;
16832;SDS011;8533;48.426;10.868;2022-07-29T13:34:52;2.67;;;2.47;;
16832;SDS011;8533;48.426;10.868;2022-07-29T13:37:20;2.43;;;2.20;;
16832;SDS011;8533;48.426;10.868;2022-07-29T13:39:47;2.40;;;2.20;;
16832;SDS011;8533;48.426;10.868;2022-07-29T13:42:15;2.50;;;2.30;;
16832;SDS011;8533;48.426;10.868;2022-07-29T13:44:42;2.53;;;2.30;;
16832;SDS011;8533;48.426;10.868;2022-07-29T13:47:10;3.23;;;2.50;;
16832;SDS011;8533;48.426;10.868;2022-07-29T13:49:38;2.50;;;2.30;;
16832;SDS011;8533;48.426;10.868;2022-07-29T13:52:05;3.53;;;2.70;;
16832;SDS011;8533;48.426;10.868;2022-07-29T13:54:33;2.60;;;2.20;;
16832;SDS011;8533;48.426;10.868;2022-07-29T13:57:05;4.03;;;2.60;;
16832;SDS011;8533;48.426;10.868;2022-07-29T13:59:36;2.90;;;2.30;;
16832;SDS011;8533;48.426;10.868;2022-07-29T14:02:04;2.67;;;2.47;;
16832;SDS011;8533;48.426;10.868;2022-07-29T14:04:32;2.40;;;2.20;;
16832;SDS011;8533;48.426;10.868;2022-07-29T14:07:00;2.50;;;2.30;;
16832;SDS011;8533;48.426;10.868;2022-07-29T14:09:27;2.40;;;2.20;;
16832;SDS011;8533;48.426;10.868;2022-07-29T14:11:55;2.53;;;1.90;;
16832;SDS011;8533;48.426;10.868;2022-07-29T14:14:22;2.23;;;1.90;;
16832;SDS011;8533;48.426;10.868;2022-07-29T14:16:50;4.97;;;2.10;;
16832;SDS011;8533;48.426;10.868;2022-07-29T14:19:17;2.40;;;2.20;;
16832;SDS011;8533;48.426;10.868;2022-07-29T14:21:45;2.57;;;2.37;;
16832;SDS011;8533;48.426;10.868;2022-07-29T14:24:12;2.17;;;1.90;;
16832;SDS011;8533;48.426;10.868;2022-07-29T14:26:39;2.30;;;2.10;;
16832;SDS011;8533;48.426;10.868;2022-07-29T14:29:07;3.20;;;2.27;;
16832;SDS011;8533;48.426;10.868;2022-07-29T14:31:34;1.97;;;1.77;;
16832;SDS011;8533;48.426;10.868;2022-07-29T14:34:02;2.10;;;1.87;;
16832;SDS011;8533;48.426;10.868;2022-07-29T14:36:29;4.03;;;2.23;;
16832;SDS011;8533;48.426;10.868;2022-07-29T14:38:56;2.60;;;2.10;;
16832;SDS011;8533;48.426;10.868;2022-07-29T14:41:24;2.10;;;2.00;;
16832;SDS011;8533;48.426;10.868;2022-07-29T14:43:53;1.90;;;1.80;;
16832;SDS011;8533;48.426;10.868;2022-07-29T14:46:21;2.23;;;2.13;;
16832;SDS011;8533;48.426;10.868;2022-07-29T14:48:48;2.67;;;2.47;;
16832;SDS011;8533;48.426;10.868;2022-07-29T14:51:15;2.97;;;2.17;;
16832;SDS011;8533;48.426;10.868;2022-07-29T14:53:43;2.77;;;2.40;;
16832;SDS011;8533;48.426;10.868;2022-07-29T14:56:10;2.70;;;2.50;;
16832;SDS011;8533;48.426;10.868;2022-07-29T14:58:38;2.93;;;2.57;;
16832;SDS011;8533;48.426;10.868;2022-07-29T15:01:05;2.63;;;2.17;;
16832;SDS011;8533;48.426;10.868;2022-07-29T15:03:32;2.80;;;2.43;;
16832;SDS011;8533;48.426;10.868;2022-07-29T15:06:00;2.70;;;2.50;;
16832;SDS011;8533;48.426;10.868;2022-07-29T15:08:27;3.67;;;2.80;;
16832;SDS011;8533;48.426;10.868;2022-07-29T15:10:56;2.73;;;2.53;;
16832;SDS011;8533;48.426;10.868;2022-07-29T15:13:25;3.67;;;2.87;;
16832;SDS011;8533;48.426;10.868;2022-07-29T15:15:52;3.33;;;2.97;;
16832;SDS011;8533;48.426;10.868;2022-07-29T15:18:20;3.10;;;2.77;;
16832;SDS011;8533;48.426;10.868;2022-07-29T15:20:47;3.13;;;2.70;;
16832;SDS011;8533;48.426;10.868;2022-07-29T15:23:15;2.70;;;2.50;;
16832;SDS011;8533;48.426;10.868;2022-07-29T15:25:42;2.80;;;2.60;;
16832;SDS011;8533;48.426;10.868;2022-07-29T15:28:09;2.97;;;2.70;;
16832;SDS011;8533;48.426;10.868;2022-07-29T15:30:37;2.77;;;2.57;;
16832;SDS011;8533;48.426;10.868;2022-07-29T15:33:07;3.07;;;2.60;;
16832;SDS011;8533;48.426;10.868;2022-07-29T15:35:35;3.33;;;3.03;;
16832;SDS011;8533;48.426;10.868;2022-07-29T15:38:04;3.67;;;2.70;;
16832;SDS011;8533;48.426;10.868;2022-07-29T15:40:31;2.70;;;2.50;;
16832;SDS011;8533;48.426;10.868;2022-07-29T15:42:58;3.20;;;2.50;;
16832;SDS011;8533;48.426;10.868;2022-07-29T15:45:29;2.93;;;2.50;;
16832;SDS011;8533;48.426;10.868;2022-07-29T15:50:32;2.60;;;2.33;;
16832;SDS011;8533;48.426;10.868;2022-07-29T15:53:00;2.70;;;2.50;;
16832;SDS011;8533;48.426;10.868;2022-07-29T15:55:27;2.60;;;2.40;;
16832;SDS011;8533;48.426;10.868;2022-07-29T15:57:55;3.20;;;2.60;;
16832;SDS011;8533;48.426;10.868;2022-07-29T16:00:22;2.60;;;2.40;;
16832;SDS011;8533;48.426;10.868;2022-07-29T16:02:49;2.40;;;2.20;;
16832;SDS011;8533;48.426;10.868;2022-07-29T16:05:17;2.97;;;2.40;;
16832;SDS011;8533;48.426;10.868;2022-07-29T16:07:44;2.53;;;2.30;;
16832;SDS011;8533;48.426;10.868;2022-07-29T16:10:12;2.70;;;2.07;;
16832;SDS011;8533;48.426;10.868;2022-07-29T16:12:40;2.10;;;1.90;;
16832;SDS011;8533;48.426;10.868;2022-07-29T16:15:08;5.50;;;2.00;;
16832;SDS011;8533;48.426;10.868;2022-07-29T16:17:35;2.03;;;1.87;;
16832;SDS011;8533;48.426;10.868;2022-07-29T16:20:04;2.30;;;2.10;;
16832;SDS011;8533;48.426;10.868;2022-07-29T16:22:31;3.70;;;2.00;;
16832;SDS011;8533;48.426;10.868;2022-07-29T16:24:59;1.70;;;1.60;;
16832;SDS011;8533;48.426;10.868;2022-07-29T16:27:26;2.03;;;1.70;;